Beaver Islander — WT5906 — position and weather

sailwx.info

Track history (hours):
 
Tides and Currents Weather Stations Pressure Air Temp Water Temp Dewpoint Dewpoint Depression Visibility Wind Speed Wind Dir Waves Ship Positions

Beaver Islander

Owner: BEAVER ISLAND BOAT CO, CHARLEVOIX, MI. More information available from US FCC via Universal Licensing System and Coast Guard Vessel Documentation Center.

Last reported at 2015-Jun-28 23:33 UTC. Time now 2015-Jul-04 07:02 UTC.
Position N 45°43' W 085°29'.

Length 28 m; draft 3 m.

Type: Passenger vessel. MMSI: 366936060.

Date/timePositionNaut miles runAvg speedWind from/ knotsBaromVisibWave heightAir tempDewpointWater temp
2015-Jun-28 23:33N 45°43' W 085°29'1312.8
2015-Jun-28 22:33N 45°31' W 085°22'1312.9
2015-Jun-28 21:34N 45°19' W 085°16'0 0.4
2015-Jun-28 20:33N 45°19' W 085°15'1212.4
2015-Jun-28 19:33N 45°31' W 085°22'1313.4
2015-Jun-28 18:33N 45°43' W 085°29'2 2.2
2015-Jun-28 17:28N 45°45' W 085°31'1 0.1
2015-Jun-27 23:33N 45°44' W 085°30'1313.2
2015-Jun-27 22:33N 45°32' W 085°22'1313.2
2015-Jun-27 21:33N 45°19' W 085°16'0 0.4
2015-Jun-27 20:33N 45°19' W 085°15'1212.4
2015-Jun-27 19:33N 45°31' W 085°22'1313.3
2015-Jun-27 18:33N 45°43' W 085°29'0 0.3
2015-Jun-27 17:33N 45°43' W 085°29'1312.9
2015-Jun-27 16:33N 45°31' W 085°22'1312.8
2015-Jun-27 15:33N 45°19' W 085°16'0 0.3
2015-Jun-27 14:33N 45°19' W 085°15'1212.2
2015-Jun-27 13:33N 45°30' W 085°22'1313.4
2015-Jun-27 12:33N 45°43' W 085°29'3 2.5
2015-Jun-27 11:33N 45°45' W 085°31'0 0.0
2015-Jun-27 00:06N 45°45' W 085°31'2 3.1
2015-Jun-26 23:33N 45°44' W 085°29'1313.0
2015-Jun-26 22:33N 45°31' W 085°23'1313.1
2015-Jun-26 21:33N 45°19' W 085°16'0 0.4
2015-Jun-26 20:33N 45°19' W 085°15'1212.4
2015-Jun-26 19:33N 45°31' W 085°22'1313.5
2015-Jun-26 18:33N 45°43' W 085°29'2 2.3
2015-Jun-26 17:34N 45°45' W 085°31'  
2015-Jun-20 23:34N 45°44' W 085°30'1313.1
2015-Jun-20 22:33N 45°32' W 085°23'1313.3
2015-Jun-20 21:33N 45°19' W 085°16'0 0.4
2015-Jun-20 20:34N 45°19' W 085°15'1312.5
2015-Jun-20 19:33N 45°31' W 085°22'1313.3
2015-Jun-20 18:33N 45°43' W 085°29'2 1.0
2015-Jun-20 16:27N 45°45' W 085°31'2 0.1
2015-Jun-19 23:33N 45°44' W 085°29'1312.9
2015-Jun-19 22:34N 45°32' W 085°23'1313.0
2015-Jun-19 21:34N 45°20' W 085°16'1 0.7
2015-Jun-19 20:33N 45°19' W 085°15'1312.6
2015-Jun-19 19:33N 45°31' W 085°23'1313.4
2015-Jun-19 18:33N 45°43' W 085°29'2 2.1
2015-Jun-19 17:30N 45°45' W 085°31'0 0.0
2015-Jun-19 16:30N 45°45' W 085°31'  
Track history (hours):
 
Tides and Currents Weather Stations Pressure Air Temp Water Temp Dewpoint Dewpoint Depression Visibility Wind Speed Wind Dir Waves Ship Positions

Beaver Islander

Owner: BEAVER ISLAND BOAT CO, CHARLEVOIX, MI. More information available from US FCC via Universal Licensing System and Coast Guard Vessel Documentation Center.

Last reported at 2015-Jun-28 23:33 UTC. Time now 2015-Jul-04 07:02 UTC.
Position N 45°43' W 085°29'.

Length 28 m; draft 3 m.

Type: Passenger vessel. MMSI: 366936060.

Date/timePositionNaut miles runAvg speedWind from/ knotsBaromVisibWave heightAir tempDewpointWater temp
2015-Jun-28 23:33N 45°43' W 085°29'1312.8
2015-Jun-28 22:33N 45°31' W 085°22'1312.9
2015-Jun-28 21:34N 45°19' W 085°16'0 0.4
2015-Jun-28 20:33N 45°19' W 085°15'1212.4
2015-Jun-28 19:33N 45°31' W 085°22'1313.4
2015-Jun-28 18:33N 45°43' W 085°29'2 2.2
2015-Jun-28 17:28N 45°45' W 085°31'1 0.1
2015-Jun-27 23:33N 45°44' W 085°30'1313.2
2015-Jun-27 22:33N 45°32' W 085°22'1313.2
2015-Jun-27 21:33N 45°19' W 085°16'0 0.4
2015-Jun-27 20:33N 45°19' W 085°15'1212.4
2015-Jun-27 19:33N 45°31' W 085°22'1313.3
2015-Jun-27 18:33N 45°43' W 085°29'0 0.3
2015-Jun-27 17:33N 45°43' W 085°29'1312.9
2015-Jun-27 16:33N 45°31' W 085°22'1312.8
2015-Jun-27 15:33N 45°19' W 085°16'0 0.3
2015-Jun-27 14:33N 45°19' W 085°15'1212.2
2015-Jun-27 13:33N 45°30' W 085°22'1313.4
2015-Jun-27 12:33N 45°43' W 085°29'3 2.5
2015-Jun-27 11:33N 45°45' W 085°31'0 0.0
2015-Jun-27 00:06N 45°45' W 085°31'2 3.1
2015-Jun-26 23:33N 45°44' W 085°29'1313.0
2015-Jun-26 22:33N 45°31' W 085°23'1313.1
2015-Jun-26 21:33N 45°19' W 085°16'0 0.4
2015-Jun-26 20:33N 45°19' W 085°15'1212.4
2015-Jun-26 19:33N 45°31' W 085°22'1313.5
2015-Jun-26 18:33N 45°43' W 085°29'2 2.3
2015-Jun-26 17:34N 45°45' W 085°31'  
2015-Jun-20 23:34N 45°44' W 085°30'1313.1
2015-Jun-20 22:33N 45°32' W 085°23'1313.3
2015-Jun-20 21:33N 45°19' W 085°16'0 0.4
2015-Jun-20 20:34N 45°19' W 085°15'1312.5
2015-Jun-20 19:33N 45°31' W 085°22'1313.3
2015-Jun-20 18:33N 45°43' W 085°29'2 1.0
2015-Jun-20 16:27N 45°45' W 085°31'2 0.1
2015-Jun-19 23:33N 45°44' W 085°29'1312.9
2015-Jun-19 22:34N 45°32' W 085°23'1313.0
2015-Jun-19 21:34N 45°20' W 085°16'1 0.7
2015-Jun-19 20:33N 45°19' W 085°15'1312.6
2015-Jun-19 19:33N 45°31' W 085°23'1313.4
2015-Jun-19 18:33N 45°43' W 085°29'2 2.1
2015-Jun-19 17:30N 45°45' W 085°31'0 0.0
2015-Jun-19 16:30N 45°45' W 085°31'  

Dump ship's entire track history